Time;durP1;ratioP1;P1;durP2;ratioP2;P2;SDS_P1;SDS_P2;PMS_P1;PMS_P2;Temp;Humidity;BMP_temperature;BMP_pressure;BME280_temperature;BME280_humidity;BME280_pressure;Samples;Min_cycle;Max_cycle;Signal;HPM_P1;HPM_P2
2022/06/20 00:00:08;;;;;;;1.30;1.20;;;27.90;49.50;;;;;;5119236;27;20582;-50
2022/06/20 00:02:51;;;;;;;3.80;1.30;;;27.90;49.60;;;;;;5127497;27;21038;-48
2022/06/20 00:05:33;;;;;;;1.30;1.20;;;27.90;49.70;;;;;;5112985;27;20664;-50
2022/06/20 00:08:15;;;;;;;2.23;1.30;;;27.90;49.70;;;;;;5074230;28;20520;-48
2022/06/20 00:10:56;;;;;;;1.43;0.90;;;27.90;49.70;;;;;;5070208;28;20543;-49
2022/06/20 00:13:41;;;;;;;1.00;0.87;;;27.80;49.70;;;;;;5125576;27;20609;-47
2022/06/20 00:16:23;;;;;;;3.57;1.30;;;27.80;49.80;;;;;;5103326;27;20539;-48
2022/06/20 00:19:05;;;;;;;1.70;1.20;;;27.90;49.70;;;;;;5086153;28;20404;-48
2022/06/20 00:21:46;;;;;;;1.53;1.43;;;27.90;49.80;;;;;;5065586;28;21046;-48
2022/06/20 00:24:29;;;;;;;1.30;1.20;;;27.80;49.60;;;;;;5121432;27;21114;-49
2022/06/20 00:27:11;;;;;;;1.10;1.00;;;27.80;49.70;;;;;;5063536;27;20651;-48
2022/06/20 00:29:52;;;;;;;0.97;0.87;;;27.80;49.70;;;;;;5082554;28;20532;-48
2022/06/20 00:32:33;;;;;;;1.90;1.20;;;27.80;49.70;;;;;;5067475;27;20598;-48
2022/06/20 00:35:14;;;;;;;1.63;1.13;;;27.80;50.00;;;;;;5106115;27;20609;-50
2022/06/20 00:37:58;;;;;;;1.10;0.97;;;27.80;49.90;;;;;;5107416;27;20498;-48
2022/06/20 00:40:46;;;;;;;1.33;1.10;;;27.80;49.90;;;;;;5103412;27;20600;-48
2022/06/20 00:43:32;;;;;;;1.40;1.20;;;27.80;50.10;;;;;;5085552;28;20520;-52
2022/06/20 00:46:19;;;;;;;1.33;1.23;;;27.80;50.10;;;;;;5063184;27;21101;-50
2022/06/20 00:49:06;;;;;;;1.20;1.10;;;27.80;50.20;;;;;;5087030;28;20940;-48
2022/06/20 00:51:51;;;;;;;2.83;1.30;;;27.80;50.10;;;;;;5078252;27;20595;-48
2022/06/20 00:54:39;;;;;;;1.70;1.43;;;27.70;50.00;;;;;;5085823;27;20528;-49
2022/06/20 00:57:25;;;;;;;1.70;1.60;;;27.70;49.90;;;;;;5065549;28;21131;-47
2022/06/20 01:00:10;;;;;;;1.70;1.50;;;27.70;49.80;;;;;;5087486;28;20931;-48
2022/06/20 01:02:54;;;;;;;1.30;1.20;;;27.70;50.00;;;;;;5127843;27;20570;-48
2022/06/20 01:05:40;;;;;;;2.00;1.20;;;27.70;50.10;;;;;;5115848;27;1267012;-48
2022/06/20 01:08:23;;;;;;;0.77;0.70;;;27.70;50.10;;;;;;5086725;27;20519;-47
2022/06/20 01:11:05;;;;;;;2.10;1.10;;;27.70;51.40;;;;;;5100876;27;20539;-49
2022/06/20 01:13:46;;;;;;;2.50;1.50;;;27.70;50.20;;;;;;5102845;27;20623;-47
2022/06/20 01:16:30;;;;;;;1.50;1.03;;;27.70;50.30;;;;;;5074600;28;20583;-49
2022/06/20 01:19:27;;;;;;;1.10;1.00;;;27.60;50.10;;;;;;5087723;27;20569;-48
2022/06/20 01:22:24;;;;;;;1.60;1.50;;;27.70;50.30;;;;;;5033074;27;20602;-46
2022/06/20 01:25:28;;;;;;;1.33;1.23;;;27.60;50.20;;;;;;5142403;27;1207626;-47
2022/06/20 01:28:13;;;;;;;1.50;1.40;;;27.60;50.30;;;;;;5068705;27;20600;-68
2022/06/20 01:30:53;;;;;;;1.57;1.40;;;27.60;50.30;;;;;;5081827;28;20544;-48
2022/06/20 01:33:36;;;;;;;2.73;1.27;;;27.60;50.40;;;;;;5129359;27;20579;-49
2022/06/20 01:39:18;;;;;;;1.80;1.10;;;27.60;50.50;;;;;;5127769;27;20513;-51
2022/06/20 01:45:01;;;;;;;1.40;1.13;;;27.60;50.50;;;;;;5102398;27;20539;-49
2022/06/20 01:47:42;;;;;;;2.30;1.00;;;27.60;50.50;;;;;;5087571;28;20528;-48
2022/06/20 01:50:22;;;;;;;1.63;1.53;;;27.60;50.50;;;;;;5080692;28;20936;-48
2022/06/20 01:53:07;;;;;;;1.03;1.03;;;27.60;50.50;;;;;;5130397;22;20572;31
2022/06/20 01:55:51;;;;;;;1.10;1.00;;;27.60;50.60;;;;;;5114701;27;20540;-47
2022/06/20 01:58:36;;;;;;;1.33;1.20;;;27.50;50.50;;;;;;5080516;27;20519;-48
2022/06/20 02:01:17;;;;;;;1.27;1.17;;;27.50;50.70;;;;;;5102007;27;20687;-47
2022/06/20 02:03:59;;;;;;;1.43;0.97;;;27.50;50.70;;;;;;5092196;27;20609;-48
2022/06/20 02:06:40;;;;;;;1.20;1.10;;;27.50;50.60;;;;;;4985885;28;20956;-48
2022/06/20 02:09:22;;;;;;;1.90;1.20;;;27.50;50.70;;;;;;5151063;27;20577;-48
2022/06/20 02:12:05;;;;;;;1.57;1.33;;;27.50;50.80;;;;;;5069931;28;20540;-48
2022/06/20 02:14:49;;;;;;;1.23;1.13;;;27.50;50.80;;;;;;5074378;28;20537;-48
2022/06/20 02:17:33;;;;;;;1.97;1.77;;;27.50;50.40;;;;;;5070863;27;20544;-47
2022/06/20 02:20:18;;;;;;;1.47;0.90;;;27.40;50.50;;;;;;5082689;27;20539;-47
2022/06/20 02:23:00;;;;;;;1.27;1.17;;;27.40;50.60;;;;;;5107283;27;20522;-48
2022/06/20 02:25:43;;;;;;;1.50;1.40;;;27.40;50.70;;;;;;5070700;27;20586;-48
2022/06/20 02:28:34;;;;;;;1.33;0.90;;;27.40;50.70;;;;;;5086204;28;20939;-48
2022/06/20 02:31:16;;;;;;;1.13;0.97;;;27.40;50.70;;;;;;5076235;27;20595;-49
2022/06/20 02:33:57;;;;;;;1.47;1.37;;;27.40;50.70;;;;;;5083326;28;21109;-48
2022/06/20 02:36:38;;;;;;;1.20;1.10;;;27.40;50.80;;;;;;5086275;27;20938;-48
2022/06/20 02:39:20;;;;;;;1.47;1.10;;;27.40;50.80;;;;;;5132631;27;20576;-48
2022/06/20 02:42:04;;;;;;;1.23;1.13;;;27.40;50.80;;;;;;5106056;27;1227606;-47
2022/06/20 02:44:48;;;;;;;1.30;1.10;;;27.40;50.80;;;;;;5075600;28;20960;-47
2022/06/20 02:47:30;;;;;;;1.20;1.10;;;27.40;50.80;;;;;;5060017;28;20955;-47
2022/06/20 02:50:12;;;;;;;2.37;1.30;;;27.40;50.80;;;;;;5103692;27;20543;-48
2022/06/20 02:52:58;;;;;;;1.93;1.07;;;27.30;51.00;;;;;;5087636;28;20507;-47
2022/06/20 02:55:39;;;;;;;1.80;1.30;;;27.30;50.90;;;;;;5094239;27;21091;-49
2022/06/20 02:58:23;;;;;;;2.27;1.30;;;27.30;50.90;;;;;;5087113;27;20516;-48
2022/06/20 03:01:13;;;;;;;1.90;1.27;;;27.30;50.80;;;;;;5046827;27;20541;-46
2022/06/20 03:03:57;;;;;;;1.47;1.37;;;27.30;50.90;;;;;;5125496;27;20923;-48
2022/06/20 03:06:42;;;;;;;1.40;1.20;;;27.30;50.90;;;;;;5034063;28;20537;-46
2022/06/20 03:09:28;;;;;;;2.23;1.00;;;27.30;50.90;;;;;;5085363;27;20946;-47
2022/06/20 03:12:09;;;;;;;1.03;1.00;;;27.30;50.90;;;;;;5071849;28;20583;-49
2022/06/20 03:14:53;;;;;;;2.10;1.20;;;27.30;51.00;;;;;;5083673;28;20528;-46
2022/06/20 03:17:34;;;;;;;1.73;1.30;;;27.30;51.10;;;;;;5046898;27;20974;-49
2022/06/20 03:20:16;;;;;;;1.70;1.40;;;27.30;51.20;;;;;;5069749;28;20589;-48
2022/06/20 03:23:05;;;;;;;1.77;1.03;;;27.20;51.00;;;;;;5087000;28;20524;-48
2022/06/20 03:25:45;;;;;;;1.20;1.10;;;27.20;51.00;;;;;;5101208;27;20608;-48
2022/06/20 03:28:28;;;;;;;1.23;1.13;;;27.20;50.90;;;;;;5085493;28;20523;-48
2022/06/20 03:31:17;;;;;;;1.20;1.10;;;27.20;52.20;;;;;;5074509;28;20612;-48
2022/06/20 03:33:57;;;;;;;3.13;1.63;;;27.20;51.00;;;;;;5127252;27;21067;-47
2022/06/20 03:36:37;;;;;;;1.67;1.40;;;27.20;51.10;;;;;;5056167;27;20551;-48
2022/06/20 03:39:19;;;;;;;1.20;1.10;;;27.20;51.00;;;;;;5086950;28;20935;-46
2022/06/20 03:41:59;;;;;;;2.07;1.30;;;27.20;51.10;;;;;;5084405;27;20536;-47
2022/06/20 03:44:43;;;;;;;1.23;1.10;;;27.20;51.10;;;;;;5077130;28;20545;-48
2022/06/20 03:47:28;;;;;;;1.63;1.30;;;27.10;51.00;;;;;;5016404;27;21122;-49
2022/06/20 03:50:14;;;;;;;1.83;1.13;;;27.10;51.10;;;;;;5085348;27;20536;-48
2022/06/20 03:53:02;;;;;;;1.67;1.20;;;27.10;51.20;;;;;;5087019;27;20585;-48
2022/06/20 03:55:48;;;;;;;1.37;1.20;;;27.10;51.10;;;;;;5068672;28;20604;-48
2022/06/20 03:58:36;;;;;;;2.07;1.50;;;27.10;51.20;;;;;;5127769;27;20524;-47
2022/06/20 04:01:22;;;;;;;1.40;1.30;;;27.10;51.80;;;;;;5056138;28;20535;-49
2022/06/20 04:04:09;;;;;;;1.73;1.13;;;27.10;51.20;;;;;;5101154;27;20594;-48
2022/06/20 04:06:54;;;;;;;1.30;1.20;;;27.10;51.20;;;;;;5044992;28;20622;-48
2022/06/20 04:12:40;;;;;;;1.27;1.17;;;27.00;51.30;;;;;;5127147;27;20967;-48
2022/06/20 04:15:24;;;;;;;1.57;1.10;;;27.00;51.30;;;;;;5058254;27;20599;-47
2022/06/20 04:18:30;;;;;;;1.30;1.20;;;27.00;51.30;;;;;;5085651;28;20578;-47
2022/06/20 04:21:20;;;;;;;1.67;1.57;;;27.00;51.30;;;;;;5077790;27;20587;-50
2022/06/20 04:24:06;;;;;;;1.10;0.90;;;27.00;51.40;;;;;;5121838;27;20526;-48
2022/06/20 04:26:54;;;;;;;1.70;1.60;;;27.00;51.40;;;;;;5089934;27;20553;-48
2022/06/20 04:29:38;;;;;;;1.37;1.23;;;27.00;51.40;;;;;;5081160;27;21247;-48
2022/06/20 04:32:25;;;;;;;2.33;1.50;;;27.00;51.40;;;;;;5021715;28;20555;-48
2022/06/20 04:35:12;;;;;;;1.37;1.27;;;27.00;51.50;;;;;;5090335;27;20656;-48
2022/06/20 04:37:57;;;;;;;1.60;1.50;;;26.90;51.30;;;;;;5087054;27;20516;-48
2022/06/20 04:40:45;;;;;;;2.97;1.30;;;26.90;51.30;;;;;;5071814;27;20525;-48
2022/06/20 04:43:32;;;;;;;1.53;1.33;;;26.90;51.40;;;;;;5086556;27;20523;-49
2022/06/20 04:46:19;;;;;;;1.77;1.10;;;26.90;52.70;;;;;;5057215;28;20598;-48
2022/06/20 04:49:00;;;;;;;2.27;1.37;;;26.90;51.60;;;;;;5087444;27;20527;-46
2022/06/20 04:51:44;;;;;;;1.23;1.13;;;26.90;51.60;;;;;;5070768;27;20538;-48
2022/06/20 04:54:25;;;;;;;1.13;0.90;;;26.90;51.60;;;;;;5084166;28;20537;-49
2022/06/20 04:57:05;;;;;;;1.03;0.93;;;26.90;51.60;;;;;;5065245;27;20600;-48
2022/06/20 04:59:45;;;;;;;1.27;1.13;;;26.80;51.60;;;;;;5143000;27;1214024;-49
2022/06/20 05:02:26;;;;;;;1.30;1.20;;;26.80;51.60;;;;;;5075893;27;20635;-48
2022/06/20 05:05:17;;;;;;;1.80;1.13;;;26.80;51.50;;;;;;5139325;27;20533;-48
2022/06/20 05:08:00;;;;;;;1.93;1.37;;;26.80;51.60;;;;;;5130534;27;20529;-49
2022/06/20 05:10:47;;;;;;;1.77;1.43;;;26.80;51.60;;;;;;5077139;27;21136;-48
2022/06/20 05:13:34;;;;;;;2.27;1.37;;;26.80;51.60;;;;;;5127163;27;20581;-53
2022/06/20 05:16:19;;;;;;;1.10;0.97;;;26.80;51.60;;;;;;5061495;28;20563;-48
2022/06/20 05:19:06;;;;;;;1.33;0.90;;;26.70;51.70;;;;;;5087121;28;20524;-48
2022/06/20 05:21:53;;;;;;;1.20;1.00;;;26.80;51.70;;;;;;5046009;28;20609;-48
2022/06/20 05:24:39;;;;;;;1.13;1.03;;;26.70;51.70;;;;;;5075362;28;21557;-47
2022/06/20 05:27:24;;;;;;;1.20;1.10;;;26.70;51.70;;;;;;5058925;28;21126;-47
2022/06/20 05:30:08;;;;;;;1.30;1.00;;;26.70;51.80;;;;;;5108787;27;20619;-47
2022/06/20 05:32:55;;;;;;;1.60;1.07;;;26.70;51.80;;;;;;5086547;28;20532;-48
2022/06/20 05:35:40;;;;;;;1.20;1.10;;;26.70;51.80;;;;;;5066045;27;20956;-48
2022/06/20 05:38:27;;;;;;;1.70;0.90;;;26.70;51.80;;;;;;5106572;27;20584;-48
2022/06/20 05:41:11;;;;;;;1.30;1.20;;;26.70;51.80;;;;;;5065770;27;20557;-48
2022/06/20 05:43:51;;;;;;;1.30;1.20;;;26.70;51.80;;;;;;5082854;28;20947;-48
2022/06/20 05:46:37;;;;;;;1.27;1.17;;;26.70;51.90;;;;;;5057135;27;20550;-48
2022/06/20 05:49:29;;;;;;;1.27;1.17;;;26.70;51.90;;;;;;5111942;27;20652;-48
2022/06/20 05:52:13;;;;;;;1.63;0.97;;;26.70;51.90;;;;;;5062425;28;20541;-49
2022/06/20 05:54:58;;;;;;;1.90;1.10;;;26.60;53.20;;;;;;5070912;27;20534;-48
2022/06/20 05:57:41;;;;;;;3.07;1.23;;;26.60;53.10;;;;;;5033424;27;20540;-48
2022/06/20 06:00:26;;;;;;;1.10;1.00;;;26.60;51.80;;;;;;5083069;27;20949;-48
2022/06/20 06:03:13;;;;;;;1.70;1.30;;;26.60;52.00;;;;;;5086339;28;20570;-47
2022/06/20 06:06:01;;;;;;;2.07;1.13;;;26.60;51.80;;;;;;5113394;27;20551;-48
2022/06/20 06:08:47;;;;;;;1.33;1.13;;;26.60;51.90;;;;;;5087268;27;20588;-48
2022/06/20 06:11:35;;;;;;;1.27;1.17;;;26.60;51.90;;;;;;5057320;27;20591;-48
2022/06/20 06:14:24;;;;;;;1.10;0.83;;;26.60;51.90;;;;;;5068564;28;20594;-48
2022/06/20 06:17:12;;;;;;;1.83;1.00;;;26.60;51.80;;;;;;5069469;28;20537;-48
2022/06/20 06:20:17;;;;;;;1.23;0.83;;;26.50;51.80;;;;;;5090359;27;20623;-47
2022/06/20 06:23:01;;;;;;;1.37;0.90;;;26.50;51.90;;;;;;5086065;27;21034;-47
2022/06/20 06:25:44;;;;;;;1.40;1.13;;;26.50;52.00;;;;;;5095816;27;20557;-49
2022/06/20 06:28:27;;;;;;;1.10;0.70;;;26.50;52.10;;;;;;5086360;27;20520;-47
2022/06/20 06:31:14;;;;;;;1.93;1.23;;;26.50;52.00;;;;;;5066582;28;20547;-48
2022/06/20 06:34:01;;;;;;;1.33;0.90;;;26.50;52.10;;;;;;5081452;27;21137;-47
2022/06/20 06:36:46;;;;;;;1.10;0.90;;;26.50;52.00;;;;;;5049360;28;20597;-48
2022/06/20 06:39:33;;;;;;;1.00;0.80;;;26.50;52.00;;;;;;5109630;27;20522;-48
2022/06/20 06:42:16;;;;;;;1.77;1.00;;;26.40;52.10;;;;;;5064142;28;21069;-47
2022/06/20 06:44:59;;;;;;;0.90;0.80;;;26.40;52.00;;;;;;5067570;28;20542;-48
2022/06/20 06:47:43;;;;;;;1.10;1.00;;;26.40;52.00;;;;;;5070568;27;20610;-48
2022/06/20 06:50:32;;;;;;;1.33;1.10;;;26.40;52.00;;;;;;5083933;28;20938;-47
2022/06/20 06:53:18;;;;;;;0.80;0.80;;;26.40;52.10;;;;;;5086457;28;20581;-48
2022/06/20 06:56:04;;;;;;;1.03;0.93;;;26.40;52.20;;;;;;5075901;28;20596;-48
2022/06/20 06:58:56;;;;;;;1.77;1.30;;;26.40;52.20;;;;;;5087282;28;21029;-47
2022/06/20 07:01:41;;;;;;;1.00;0.77;;;26.30;52.10;;;;;;5079259;27;20545;-49
2022/06/20 07:04:29;;;;;;;2.23;1.10;;;26.30;52.10;;;;;;5081789;27;20606;-48
2022/06/20 07:07:16;;;;;;;1.70;1.20;;;26.30;52.10;;;;;;5064559;27;20596;-48
2022/06/20 07:09:57;;;;;;;0.90;0.90;;;26.30;52.10;;;;;;5110204;27;20584;-48
2022/06/20 07:12:43;;;;;;;2.77;0.90;;;26.30;52.20;;;;;;5060229;28;20548;-46
2022/06/20 07:15:25;;;;;;;1.27;0.77;;;26.30;52.20;;;;;;5160534;27;20538;-47
2022/06/20 07:18:12;;;;;;;1.20;1.00;;;26.30;52.20;;;;;;5128889;27;20549;-47
2022/06/20 07:20:53;;;;;;;1.00;0.90;;;26.30;52.20;;;;;;5078785;27;20591;-49
2022/06/20 07:23:35;;;;;;;1.00;0.80;;;26.30;52.40;;;;;;5074443;28;20666;-46
2022/06/20 07:26:18;;;;;;;1.50;1.03;;;26.30;52.40;;;;;;5072862;27;20605;-47
2022/06/20 07:29:03;;;;;;;1.60;0.70;;;26.30;52.40;;;;;;5083306;27;20597;-48
2022/06/20 07:31:48;;;;;;;1.43;1.03;;;26.20;52.30;;;;;;5097838;27;20548;-48
2022/06/20 07:34:33;;;;;;;1.20;1.00;;;26.20;52.30;;;;;;5075773;27;20536;-48
2022/06/20 07:37:19;;;;;;;1.10;1.00;;;26.20;52.40;;;;;;5113282;27;20766;-48
2022/06/20 07:40:05;;;;;;;1.40;1.30;;;26.20;52.30;;;;;;5148591;27;20988;-47
2022/06/20 07:42:50;;;;;;;1.00;0.90;;;26.20;52.40;;;;;;5066670;27;20610;-47
2022/06/20 07:45:35;;;;;;;0.80;0.80;;;26.20;52.40;;;;;;5071724;28;21079;-48
2022/06/20 07:48:21;;;;;;;1.53;1.17;;;26.20;52.50;;;;;;5071490;27;20540;-49
2022/06/20 07:51:09;;;;;;;1.27;0.83;;;26.10;52.40;;;;;;5065719;28;20605;-49
2022/06/20 07:53:54;;;;;;;1.37;1.10;;;26.10;52.40;;;;;;5103847;27;20581;-48
2022/06/20 07:56:39;;;;;;;1.57;0.90;;;26.20;52.40;;;;;;5088690;22;20614;-47
2022/06/20 07:59:24;;;;;;;1.43;0.80;;;26.10;52.40;;;;;;5085973;28;20933;-49
2022/06/20 08:02:08;;;;;;;1.40;1.30;;;26.10;52.40;;;;;;5065433;27;20596;-48
2022/06/20 08:04:53;;;;;;;1.60;1.30;;;26.10;52.40;;;;;;5086007;27;21053;-47
2022/06/20 08:07:40;;;;;;;1.37;1.03;;;26.10;52.50;;;;;;5049243;28;20972;-49
2022/06/20 08:10:27;;;;;;;1.87;1.10;;;26.10;52.40;;;;;;5130389;27;20675;-47
2022/06/20 08:13:17;;;;;;;1.00;0.83;;;26.10;52.40;;;;;;5084994;28;21099;-49
2022/06/20 08:16:03;;;;;;;1.10;1.00;;;26.00;52.50;;;;;;5077942;28;20540;-47
2022/06/20 08:18:44;;;;;;;2.43;1.43;;;26.00;52.40;;;;;;5128784;27;20525;-47
2022/06/20 08:21:29;;;;;;;1.50;1.17;;;26.00;53.60;;;;;;5066881;28;20546;-49
2022/06/20 08:24:18;;;;;;;1.90;1.20;;;26.00;52.50;;;;;;5127989;27;20941;-49
2022/06/20 08:27:03;;;;;;;1.70;0.80;;;26.00;52.50;;;;;;5069266;27;20604;-47
2022/06/20 08:29:52;;;;;;;1.10;0.73;;;26.00;52.40;;;;;;5079957;28;20540;-47
2022/06/20 08:32:41;;;;;;;1.00;0.80;;;26.00;52.50;;;;;;5064727;27;20574;-48
2022/06/20 08:35:31;;;;;;;1.77;1.13;;;26.00;52.60;;;;;;5076649;28;20543;-46
2022/06/20 08:38:19;;;;;;;1.40;1.30;;;25.90;52.60;;;;;;5086624;28;20523;-48
2022/06/20 08:41:28;;;;;;;2.20;1.23;;;25.90;52.60;;;;;;5081147;28;20541;-49
2022/06/20 08:44:43;;;;;;;1.03;0.80;;;26.00;52.70;;;;;;5102920;27;20550;-47
2022/06/20 08:48:27;;;;;;;1.80;1.20;;;25.90;52.70;;;;;;5074930;27;20545;-49
2022/06/20 08:52:06;;;;;;;1.43;1.10;;;25.90;52.70;;;;;;5105211;27;20533;-53
2022/06/20 08:55:08;;;;;;;1.00;0.83;;;25.90;52.60;;;;;;5069751;28;20535;-47
2022/06/20 08:57:59;;;;;;;2.10;0.80;;;25.90;52.70;;;;;;5107057;27;20649;-48
2022/06/20 09:00:59;;;;;;;0.93;0.77;;;25.90;52.80;;;;;;5112423;27;20624;-48
2022/06/20 09:04:02;;;;;;;1.17;1.07;;;25.90;52.80;;;;;;5106669;27;20963;-49
2022/06/20 09:07:29;;;;;;;1.33;0.90;;;25.90;52.80;;;;;;5114756;27;20598;-48
2022/06/20 09:10:25;;;;;;;1.10;1.00;;;25.90;52.70;;;;;;5086845;28;20936;-48
2022/06/20 09:13:31;;;;;;;2.43;0.83;;;25.90;52.70;;;;;;5085572;28;20644;-48
2022/06/20 09:16:23;;;;;;;1.40;1.30;;;25.90;52.70;;;;;;5073472;28;20968;-47
2022/06/20 09:19:28;;;;;;;1.10;1.00;;;25.80;52.70;;;;;;5109628;27;20568;-48
2022/06/20 09:22:24;;;;;;;1.23;1.00;;;25.80;52.70;;;;;;5081476;27;20545;-49
2022/06/20 09:25:18;;;;;;;1.90;1.00;;;25.80;52.70;;;;;;5120059;27;20544;-48
2022/06/20 09:28:11;;;;;;;1.40;1.30;;;25.80;52.70;;;;;;5122392;27;20530;-50
2022/06/20 09:30:59;;;;;;;1.27;0.80;;;25.80;52.80;;;;;;5114405;27;21044;-49
2022/06/20 09:34:12;;;;;;;1.30;1.20;;;25.80;52.70;;;;;;5125755;27;20525;-47
2022/06/20 09:37:35;;;;;;;1.10;0.90;;;25.80;52.70;;;;;;5063301;28;20600;-48
2022/06/20 09:40:27;;;;;;;2.63;1.50;;;25.80;52.90;;;;;;5069669;28;20540;-49
2022/06/20 09:43:20;;;;;;;1.20;1.10;;;25.80;52.80;;;;;;5094789;27;20934;-47
2022/06/20 09:46:07;;;;;;;0.80;0.80;;;25.70;52.80;;;;;;5074438;28;20583;-47
2022/06/20 09:48:56;;;;;;;0.90;0.90;;;25.80;52.90;;;;;;5088322;27;20940;-48
2022/06/20 09:51:48;;;;;;;1.37;1.00;;;25.70;52.90;;;;;;5071932;27;20602;-46
2022/06/20 09:54:37;;;;;;;1.17;1.07;;;25.70;53.00;;;;;;5110830;27;20548;-47
2022/06/20 09:57:37;;;;;;;1.73;1.20;;;25.70;52.90;;;;;;5073324;27;20537;-50
2022/06/20 10:00:23;;;;;;;1.00;0.90;;;25.70;52.90;;;;;;5086364;27;20524;-48
2022/06/20 10:03:12;;;;;;;1.70;0.97;;;25.70;53.00;;;;;;5086822;27;20935;-48
2022/06/20 10:05:58;;;;;;;1.10;0.90;;;25.70;52.90;;;;;;5067153;28;20593;-49
2022/06/20 10:08:52;;;;;;;1.10;1.00;;;25.70;53.00;;;;;;5108624;27;20985;-48
2022/06/20 10:11:41;;;;;;;1.30;1.20;;;25.70;53.00;;;;;;5117042;27;20542;-50
2022/06/20 10:14:32;;;;;;;1.10;0.90;;;25.70;53.00;;;;;;5070449;28;21059;-48
2022/06/20 10:17:21;;;;;;;0.87;0.87;;;25.70;53.10;;;;;;5047292;27;21135;-47
2022/06/20 10:20:20;;;;;;;1.23;1.13;;;25.60;53.00;;;;;;5112139;27;20874;-48
2022/06/20 10:23:16;;;;;;;1.53;1.07;;;25.60;53.10;;;;;;5072338;27;20998;-48
2022/06/20 10:26:17;;;;;;;1.07;1.00;;;25.60;53.10;;;;;;5101792;27;20597;-48
2022/06/20 10:29:08;;;;;;;1.43;1.07;;;25.60;53.20;;;;;;5120705;27;20972;-47
2022/06/20 10:31:59;;;;;;;1.30;1.20;;;25.60;53.00;;;;;;5067680;28;20646;-49
2022/06/20 10:34:49;;;;;;;1.73;1.17;;;25.60;53.10;;;;;;5059010;28;20600;-49
2022/06/20 10:37:35;;;;;;;1.40;1.00;;;25.60;53.10;;;;;;5056718;27;21141;-49
2022/06/20 10:40:31;;;;;;;1.00;0.90;;;25.60;53.20;;;;;;5095669;27;20866;-47
2022/06/20 10:43:21;;;;;;;1.10;1.00;;;25.50;53.10;;;;;;5086815;28;21121;-47
2022/06/20 10:46:10;;;;;;;2.70;1.40;;;25.50;53.10;;;;;;5091926;27;20587;-47
2022/06/20 10:49:12;;;;;;;0.93;0.82;;;25.50;53.00;;;;;;5140646;27;1211621;-46
2022/06/20 10:52:04;;;;;;;1.63;1.00;;;25.50;53.10;;;;;;5071978;28;21043;-47
2022/06/20 10:55:04;;;;;;;1.90;1.43;;;25.50;53.20;;;;;;5122620;27;20595;-48
2022/06/20 10:57:57;;;;;;;1.47;0.90;;;25.50;53.20;;;;;;5067356;27;20598;-48
2022/06/20 11:00:44;;;;;;;1.50;0.83;;;25.50;53.20;;;;;;5118857;27;20586;-47
2022/06/20 11:03:47;;;;;;;1.70;0.90;;;25.50;53.20;;;;;;5088387;27;20575;-49
2022/06/20 11:06:39;;;;;;;1.53;1.10;;;25.50;53.20;;;;;;5055447;28;21109;-49
2022/06/20 11:09:27;;;;;;;1.53;0.97;;;25.40;53.10;;;;;;5121403;27;20574;-49
2022/06/20 11:12:14;;;;;;;1.20;1.10;;;25.40;53.20;;;;;;5087405;27;20595;-48
2022/06/20 11:15:03;;;;;;;1.20;1.10;;;25.40;53.20;;;;;;5078111;28;20595;-48
2022/06/20 11:17:50;;;;;;;1.20;0.90;;;25.40;53.30;;;;;;5145668;27;20596;-49
2022/06/20 11:20:39;;;;;;;1.27;1.10;;;25.40;53.20;;;;;;5069148;27;20523;-48
2022/06/20 11:23:23;;;;;;;1.83;1.50;;;25.40;53.20;;;;;;5116210;27;20547;-49
2022/06/20 11:26:12;;;;;;;1.10;1.00;;;25.40;53.00;;;;;;5065609;27;20550;-49
2022/06/20 11:29:22;;;;;;;1.80;1.20;;;25.40;53.30;;;;;;5125634;27;20593;-49
2022/06/20 11:32:10;;;;;;;0.90;0.90;;;25.40;52.90;;;;;;5050009;27;20551;-46
2022/06/20 11:35:08;;;;;;;1.70;0.80;;;25.40;53.20;;;;;;5122664;27;20515;-46
2022/06/20 11:38:05;;;;;;;1.20;0.87;;;25.40;52.90;;;;;;5107987;27;20576;-47
2022/06/20 11:40:54;;;;;;;2.87;1.10;;;25.30;53.20;;;;;;5079372;27;20590;-48
2022/06/20 11:44:12;;;;;;;1.10;1.00;;;25.40;53.20;;;;;;5076404;28;20520;-49
2022/06/20 11:47:13;;;;;;;1.23;1.13;;;25.30;53.20;;;;;;5056264;28;20467;-49
2022/06/20 11:50:28;;;;;;;5.73;2.87;;;25.40;53.50;;;;;;5142153;27;1207400;-57
2022/06/20 11:53:31;;;;;;;5.57;2.37;;;25.30;51.40;;;;;;5089129;27;20593;-48
2022/06/20 11:56:21;;;;;;;5.50;2.80;;;25.30;50.70;;;;;;5117954;27;20598;-50
2022/06/20 11:59:29;;;;;;;4.83;1.90;;;25.20;50.50;;;;;;5082678;28;21055;-49
2022/06/20 12:02:34;;;;;;;4.10;2.60;;;25.20;50.20;;;;;;5112827;27;1201246;-50
2022/06/20 12:05:43;;;;;;;5.37;2.43;;;25.10;49.70;;;;;;5107927;27;20655;-47
2022/06/20 12:08:44;;;;;;;5.53;2.20;;;25.10;49.00;;;;;;5114092;27;20525;-48
2022/06/20 12:11:58;;;;;;;4.07;2.50;;;25.10;49.00;;;;;;5054870;27;20947;-49
2022/06/20 12:15:04;;;;;;;4.10;2.17;;;25.10;48.10;;;;;;5071333;28;20627;-48
2022/06/20 12:17:50;;;;;;;6.30;2.60;;;25.10;48.10;;;;;;5042424;27;20601;-48
2022/06/20 12:23:39;;;;;;;4.03;2.17;;;25.00;47.90;;;;;;5116721;27;20864;-47
2022/06/20 12:26:22;;;;;;;3.13;1.80;;;25.00;47.00;;;;;;5119959;27;21069;-50
2022/06/20 12:29:14;;;;;;;2.80;1.90;;;25.00;47.30;;;;;;5088646;27;20534;-48
2022/06/20 12:31:58;;;;;;;3.07;1.77;;;24.90;47.70;;;;;;5065758;27;20607;-49
2022/06/20 12:34:50;;;;;;;3.10;1.83;;;24.90;47.70;;;;;;5080034;28;20893;-50
2022/06/20 12:37:37;;;;;;;3.40;1.90;;;25.00;47.80;;;;;;5037766;27;20547;-49
2022/06/20 12:40:25;;;;;;;3.20;1.80;;;24.90;47.30;;;;;;5125894;27;20985;-46
2022/06/20 12:43:12;;;;;;;4.00;2.00;;;24.90;47.40;;;;;;5123842;27;20587;-48
2022/06/20 12:46:26;;;;;;;4.27;1.40;;;24.90;47.40;;;;;;5112413;27;20561;-48
2022/06/20 12:49:29;;;;;;;2.80;1.77;;;24.90;48.70;;;;;;5148885;27;20528;-50
2022/06/20 12:52:16;;;;;;;7.87;2.30;;;24.70;47.90;;;;;;5067716;27;20546;-53
2022/06/20 12:55:30;;;;;;;3.63;1.90;;;24.70;48.00;;;;;;5095097;27;20573;-46
2022/06/20 12:58:35;;;;;;;3.87;1.70;;;24.80;47.80;;;;;;5087121;27;20531;-49
2022/06/20 13:01:21;;;;;;;4.03;2.20;;;24.70;47.50;;;;;;5109072;27;20534;-46
2022/06/20 13:04:39;;;;;;;2.73;1.63;;;24.70;47.20;;;;;;5127037;27;20554;-47
2022/06/20 13:07:40;;;;;;;2.10;1.83;;;24.80;47.20;;;;;;5075869;27;20539;-48
2022/06/20 13:10:41;;;;;;;3.40;2.30;;;24.70;47.00;;;;;;5127548;27;20549;-48
2022/06/20 13:13:47;;;;;;;3.30;1.63;;;24.70;47.10;;;;;;5120847;27;20644;-50
2022/06/20 13:16:37;;;;;;;2.57;1.70;;;24.70;47.00;;;;;;5056928;27;20539;-48
2022/06/20 13:19:35;;;;;;;3.87;1.90;;;24.70;46.50;;;;;;5085369;28;20584;-47
2022/06/20 13:22:23;;;;;;;3.30;1.90;;;24.70;46.80;;;;;;5035501;28;20546;-48
2022/06/20 13:25:18;;;;;;;3.10;1.53;;;24.70;47.00;;;;;;5134289;27;20881;-48
2022/06/20 13:28:06;;;;;;;2.97;1.63;;;24.70;46.90;;;;;;5086706;28;20526;-49
2022/06/20 13:31:03;;;;;;;4.00;2.20;;;24.70;46.90;;;;;;5074617;27;21053;-47
2022/06/20 13:33:54;;;;;;;3.03;1.53;;;24.70;46.50;;;;;;5087597;28;20576;-49
2022/06/20 13:36:48;;;;;;;5.43;1.83;;;24.70;46.40;;;;;;5060259;28;21383;-46
2022/06/20 13:39:38;;;;;;;3.53;2.17;;;24.60;46.80;;;;;;5107740;27;20579;-47
2022/06/20 13:42:25;;;;;;;2.20;1.60;;;24.60;47.00;;;;;;5060431;28;20528;-46
2022/06/20 13:45:16;;;;;;;4.73;2.80;;;24.60;47.50;;;;;;5069085;28;20547;-49
2022/06/20 13:48:02;;;;;;;3.27;1.90;;;24.70;47.20;;;;;;5087068;28;20519;-47
2022/06/20 13:50:49;;;;;;;2.83;1.37;;;24.70;47.20;;;;;;5080014;28;20586;-47
2022/06/20 13:53:39;;;;;;;2.40;1.63;;;24.70;47.50;;;;;;5126251;27;20610;-50
2022/06/20 13:56:27;;;;;;;3.90;2.10;;;24.70;46.70;;;;;;5103850;27;20573;-48
2022/06/20 13:59:20;;;;;;;4.50;2.37;;;24.60;46.40;;;;;;5107747;27;21085;-47
2022/06/20 14:02:04;;;;;;;2.23;2.03;;;24.60;47.20;;;;;;5057533;27;20988;-47
2022/06/20 14:04:55;;;;;;;3.03;2.00;;;24.60;46.80;;;;;;5099477;27;20560;-48
2022/06/20 14:07:38;;;;;;;2.80;1.73;;;24.60;48.10;;;;;;5085475;27;21155;-48
2022/06/20 14:10:27;;;;;;;3.60;1.83;;;24.60;46.70;;;;;;5104146;27;20592;-48
2022/06/20 14:13:20;;;;;;;2.13;1.93;;;24.60;46.40;;;;;;5083262;28;20956;-48
2022/06/20 14:16:21;;;;;;;1.87;1.57;;;24.60;46.80;;;;;;5116960;27;20623;-49
2022/06/20 14:19:05;;;;;;;2.80;1.70;;;24.60;47.10;;;;;;5086363;28;20581;-48
2022/06/20 14:21:49;;;;;;;2.37;1.87;;;24.60;45.80;;;;;;5070813;27;20580;-47
2022/06/20 14:24:37;;;;;;;2.10;1.57;;;24.60;45.30;;;;;;5082991;27;20584;-48
2022/06/20 14:27:22;;;;;;;2.23;2.03;;;24.50;44.70;;;;;;5060315;27;20545;-48
2022/06/20 14:30:06;;;;;;;3.30;1.80;;;24.60;46.80;;;;;;5084291;27;20538;-48
2022/06/20 14:32:56;;;;;;;2.60;2.30;;;24.60;47.00;;;;;;5068337;27;20580;-47
2022/06/20 14:35:50;;;;;;;3.10;2.23;;;24.60;46.40;;;;;;5062307;27;20578;-47
2022/06/20 14:38:34;;;;;;;4.63;2.10;;;24.60;47.30;;;;;;5127367;27;20938;-47
2022/06/20 14:41:40;;;;;;;3.90;2.03;;;24.60;46.90;;;;;;5084774;27;20584;-48
2022/06/20 14:44:32;;;;;;;1.80;1.63;;;24.60;46.50;;;;;;5085641;27;20542;-49
2022/06/20 14:47:27;;;;;;;3.17;1.80;;;24.60;46.40;;;;;;5062358;27;20600;-48
2022/06/20 14:50:14;;;;;;;3.17;2.13;;;24.60;46.60;;;;;;5124217;27;20569;-46